Time,TemperatureF,DewpointF,PressureIn,WindDirection,WindDirectionDegrees,WindSpeedMPH,WindSpeedGustMPH,Humidity,HourlyPrecipIn,Conditions,Clouds,dailyrainin,SoftwareType,DateUTC
2013-03-10 00:01:00,71.4,61.9,29.94,East,95,0.0,0.0,72,0.00,CLR,,0.00,WeatherDisplay:10.37,2013-03-09 13:01:00,
2013-03-10 00:06:00,71.4,61.9,29.94,SE,129,0.0,0.0,72,0.00,CLR,,0.00,WeatherDisplay:10.37,2013-03-09 13:06:00,
2013-03-10 00:11:00,71.4,61.9,29.94,ENE,60,0.0,0.0,72,0.00,CLR,,0.00,WeatherDisplay:10.37,2013-03-09 13:11:00,
2013-03-10 00:16:00,71.4,61.9,29.94,SSW,194,0.0,0.0,72,0.00,CLR,,0.00,WeatherDisplay:10.37,2013-03-09 13:16:00,
2013-03-10 00:21:00,71.2,61.7,29.94,SSE,152,0.0,0.0,72,0.00,CLR,,0.00,WeatherDisplay:10.37,2013-03-09 13:21:00,
2013-03-10 00:26:00,71.2,61.7,29.94,ESE,120,0.0,0.0,72,0.00,CLR,,0.00,WeatherDisplay:10.37,2013-03-09 13:26:00,
2013-03-10 00:31:00,71.2,61.7,29.94,ESE,112,0.0,0.0,72,0.00,CLR,,0.00,WeatherDisplay:10.37,2013-03-09 13:31:00,
2013-03-10 00:36:00,71.1,61.7,29.94,ENE,64,0.0,0.0,72,0.00,CLR,,0.00,WeatherDisplay:10.37,2013-03-09 13:36:00,
2013-03-10 00:41:00,70.9,61.4,29.94,SE,129,0.0,0.0,72,0.00,CLR,,0.00,WeatherDisplay:10.37,2013-03-09 13:41:00,
2013-03-10 00:46:00,70.9,61.8,29.94,South,180,0.0,0.0,73,0.00,CLR,,0.00,WeatherDisplay:10.37,2013-03-09 13:46:00,
2013-03-10 00:51:00,70.9,61.8,29.94,ESE,115,0.0,0.0,73,0.00,CLR,,0.00,WeatherDisplay:10.37,2013-03-09 13:51:00,
2013-03-10 00:56:00,70.7,61.6,29.94,East,86,0.0,0.0,73,0.00,CLR,,0.00,WeatherDisplay:10.37,2013-03-09 13:56:00,
2013-03-10 01:01:00,70.7,61.6,29.94,ESE,112,0.0,0.0,73,0.00,CLR,,0.00,WeatherDisplay:10.37,2013-03-09 14:01:00,
2013-03-10 01:06:00,70.6,61.5,29.94,South,171,0.0,0.0,73,0.00,CLR,,0.00,WeatherDisplay:10.37,2013-03-09 14:06:00,
2013-03-10 01:11:00,70.5,61.4,29.94,SSW,195,0.0,0.0,73,0.00,CLR,,0.00,WeatherDisplay:10.37,2013-03-09 14:11:00,
2013-03-10 01:16:00,70.5,61.4,29.94,SSW,210,0.0,0.0,73,0.00,CLR,,0.00,WeatherDisplay:10.37,2013-03-09 14:16:00,
2013-03-10 01:21:00,70.3,61.3,29.94,SSW,212,0.0,0.0,73,0.00,CLR,,0.00,WeatherDisplay:10.37,2013-03-09 14:21:00,
2013-03-10 01:26:00,70.3,61.6,29.94,SW,216,0.0,0.0,74,0.00,CLR,,0.00,WeatherDisplay:10.37,2013-03-09 14:26:00,
2013-03-10 01:31:00,70.0,61.4,29.94,SSW,209,0.0,0.0,74,0.00,CLR,,0.00,WeatherDisplay:10.37,2013-03-09 14:31:00,
2013-03-10 01:36:00,69.9,61.2,29.94,SSW,212,0.0,0.0,74,0.00,CLR,,0.00,WeatherDisplay:10.37,2013-03-09 14:36:00,
2013-03-10 01:41:00,69.6,61.0,29.94,SSW,210,0.0,0.0,74,0.00,CLR,,0.00,WeatherDisplay:10.37,2013-03-09 14:41:00,
2013-03-10 01:46:00,69.6,61.0,29.94,SSW,207,0.0,0.0,74,0.00,CLR,,0.00,WeatherDisplay:10.37,2013-03-09 14:46:00,
2013-03-10 01:51:00,69.5,60.8,29.94,SSW,207,0.0,0.0,74,0.00,CLR,,0.00,WeatherDisplay:10.37,2013-03-09 14:51:00,
2013-03-10 01:56:00,69.4,61.2,29.93,SSW,204,0.0,0.0,75,0.00,CLR,,0.00,WeatherDisplay:10.37,2013-03-09 14:56:00,
2013-03-10 02:01:00,69.4,61.1,29.93,SSW,205,0.0,2.0,75,0.00,CLR,,0.00,WeatherDisplay:10.37,2013-03-09 15:01:00,
2013-03-10 02:06:00,69.3,61.0,29.94,SW,214,0.0,1.0,75,0.00,CLR,,0.00,WeatherDisplay:10.37,2013-03-09 15:06:00,
2013-03-10 02:11:00,69.1,61.2,29.93,SSW,205,0.0,2.0,76,0.00,CLR,,0.00,WeatherDisplay:10.37,2013-03-09 15:11:00,
2013-03-10 02:16:00,69.1,61.2,29.93,SSW,193,0.0,0.0,76,0.00,CLR,,0.00,WeatherDisplay:10.37,2013-03-09 15:16:00,
2013-03-10 02:21:00,69.1,61.2,29.93,South,175,0.0,0.0,76,0.00,CLR,,0.00,WeatherDisplay:10.37,2013-03-09 15:21:00,
2013-03-10 02:26:00,69.1,61.2,29.93,SSE,148,0.0,0.0,76,0.00,CLR,,0.00,WeatherDisplay:10.37,2013-03-09 15:26:00,
2013-03-10 02:31:00,68.9,61.0,29.93,SE,125,0.0,0.0,76,0.00,CLR,,0.00,WeatherDisplay:10.37,2013-03-09 15:31:00,
2013-03-10 02:36:00,68.8,60.9,29.93,SE,128,0.0,0.0,76,0.00,CLR,,0.00,WeatherDisplay:10.37,2013-03-09 15:36:00,
2013-03-10 02:41:00,68.7,60.8,29.93,SE,131,0.0,0.0,76,0.00,CLR,,0.00,WeatherDisplay:10.37,2013-03-09 15:41:00,
2013-03-10 02:46:00,68.6,60.7,29.93,SSE,147,0.0,0.0,76,0.00,CLR,,0.00,WeatherDisplay:10.37,2013-03-09 15:46:00,
2013-03-10 02:51:00,68.5,60.7,29.93,South,170,0.0,0.0,76,0.00,CLR,,0.00,WeatherDisplay:10.37,2013-03-09 15:51:00,
2013-03-10 02:56:00,68.4,60.5,29.93,SSW,195,0.0,0.0,76,0.00,CLR,,0.00,WeatherDisplay:10.37,2013-03-09 15:56:00,
2013-03-10 03:01:00,68.2,60.3,29.93,SSW,204,0.0,0.0,76,0.00,CLR,,0.00,WeatherDisplay:10.37,2013-03-09 16:01:00,
2013-03-10 03:06:00,68.2,60.7,29.93,South,190,0.0,0.0,77,0.00,CLR,,0.00,WeatherDisplay:10.37,2013-03-09 16:06:00,
2013-03-10 03:11:00,68.2,60.7,29.92,South,183,0.0,0.0,77,0.00,CLR,,0.00,WeatherDisplay:10.37,2013-03-09 16:11:00,
2013-03-10 03:16:00,68.0,60.6,29.93,South,186,0.0,0.0,77,0.00,CLR,,0.00,WeatherDisplay:10.37,2013-03-09 16:16:00,
2013-03-10 03:21:00,67.8,60.3,29.93,South,188,0.0,0.0,77,0.00,CLR,,0.00,WeatherDisplay:10.37,2013-03-09 16:21:00,
2013-03-10 03:26:00,67.8,60.3,29.92,South,183,0.0,0.0,77,0.00,CLR,,0.00,WeatherDisplay:10.37,2013-03-09 16:26:00,
2013-03-10 03:31:00,67.6,60.2,29.92,SE,139,0.0,0.0,77,0.00,CLR,,0.00,WeatherDisplay:10.37,2013-03-09 16:31:00,
2013-03-10 03:36:00,67.6,60.2,29.93,ENE,71,0.0,0.0,77,0.00,CLR,,0.00,WeatherDisplay:10.37,2013-03-09 16:36:00,
2013-03-10 03:41:00,67.5,60.0,29.93,ENE,65,0.0,0.0,77,0.00,CLR,,0.00,WeatherDisplay:10.37,2013-03-09 16:41:00,
2013-03-10 03:46:00,67.3,59.8,29.92,ENE,78,0.0,0.0,77,0.00,CLR,,0.00,WeatherDisplay:10.37,2013-03-09 16:46:00,
2013-03-10 03:51:00,67.3,59.8,29.92,East,97,0.0,0.0,77,0.00,CLR,,0.00,WeatherDisplay:10.37,2013-03-09 16:51:00,
2013-03-10 03:56:00,67.3,60.2,29.92,ESE,104,0.0,0.0,78,0.00,CLR,,0.00,WeatherDisplay:10.37,2013-03-09 16:56:00,
2013-03-10 04:01:00,67.1,60.0,29.92,ESE,106,0.0,0.0,78,0.00,CLR,,0.00,WeatherDisplay:10.37,2013-03-09 17:01:00,
2013-03-10 04:06:00,66.9,59.8,29.92,ESE,104,0.0,0.0,78,0.00,CLR,,0.00,WeatherDisplay:10.37,2013-03-09 17:06:00,
2013-03-10 04:11:00,66.9,59.8,29.92,ESE,102,0.0,0.0,78,0.00,CLR,,0.00,WeatherDisplay:10.37,2013-03-09 17:11:00,
2013-03-10 04:16:00,66.7,59.7,29.92,ENE,75,0.0,0.0,78,0.00,CLR,,0.00,WeatherDisplay:10.37,2013-03-09 17:16:00,
2013-03-10 04:21:00,66.7,59.7,29.92,ENE,61,0.0,0.0,78,0.00,CLR,,0.00,WeatherDisplay:10.37,2013-03-09 17:21:00,
2013-03-10 04:26:00,66.7,59.7,29.92,ENE,60,0.0,0.0,78,0.00,CLR,,0.00,WeatherDisplay:10.37,2013-03-09 17:26:00,
2013-03-10 04:31:00,66.6,59.5,29.92,NE,55,0.0,0.0,78,0.00,CLR,,0.00,WeatherDisplay:10.37,2013-03-09 17:31:00,
2013-03-10 04:36:00,66.5,59.4,29.92,ENE,59,0.0,0.0,78,0.00,CLR,,0.00,WeatherDisplay:10.37,2013-03-09 17:36:00,
2013-03-10 04:41:00,66.4,59.3,29.92,ENE,62,0.0,0.0,78,0.00,CLR,,0.00,WeatherDisplay:10.37,2013-03-09 17:41:00,
2013-03-10 04:46:00,66.4,59.3,29.92,ENE,66,0.0,0.0,78,0.00,CLR,,0.00,WeatherDisplay:10.37,2013-03-09 17:46:00,
2013-03-10 04:51:00,66.3,59.2,29.92,ENE,67,0.0,0.0,78,0.00,CLR,,0.00,WeatherDisplay:10.37,2013-03-09 17:51:00,
2013-03-10 04:56:00,66.2,59.5,29.92,ENE,67,0.0,0.0,79,0.00,CLR,,0.00,WeatherDisplay:10.37,2013-03-09 17:56:00,
2013-03-10 05:01:00,66.1,59.4,29.92,ENE,64,0.0,0.0,79,0.00,CLR,,0.00,WeatherDisplay:10.37,2013-03-09 18:01:00,
2013-03-10 05:06:00,66.0,59.3,29.93,ENE,66,0.0,0.0,79,0.00,CLR,,0.00,WeatherDisplay:10.37,2013-03-09 18:06:00,
2013-03-10 05:11:00,66.0,59.3,29.93,ENE,68,0.0,0.0,79,0.00,CLR,,0.00,WeatherDisplay:10.37,2013-03-09 18:11:00,
2013-03-10 05:16:00,66.0,59.3,29.93,ENE,65,0.0,0.0,79,0.00,CLR,,0.00,WeatherDisplay:10.37,2013-03-09 18:16:00,
2013-03-10 05:21:00,66.0,59.3,29.92,SE,125,0.0,0.0,79,0.00,CLR,,0.00,WeatherDisplay:10.37,2013-03-09 18:21:00,
2013-03-10 05:26:00,66.0,59.3,29.92,South,184,0.0,0.0,79,0.00,CLR,,0.00,WeatherDisplay:10.37,2013-03-09 18:26:00,
2013-03-10 05:31:00,65.8,59.1,29.93,South,180,0.0,0.0,79,0.00,CLR,,0.00,WeatherDisplay:10.37,2013-03-09 18:31:00,
2013-03-10 05:36:00,65.8,59.5,29.93,South,182,0.0,0.0,80,0.00,CLR,,0.00,WeatherDisplay:10.37,2013-03-09 18:36:00,
2013-03-10 05:41:00,65.8,59.5,29.93,South,179,0.0,0.0,80,0.00,CLR,,0.00,WeatherDisplay:10.37,2013-03-09 18:41:00,
2013-03-10 05:46:00,65.8,59.5,29.93,South,178,0.0,0.0,80,0.00,CLR,,0.00,WeatherDisplay:10.37,2013-03-09 18:46:00,
2013-03-10 05:51:00,65.8,59.1,29.93,South,180,0.0,0.0,79,0.00,CLR,,0.00,WeatherDisplay:10.37,2013-03-09 18:51:00,
2013-03-10 05:56:00,65.7,59.0,29.93,South,177,0.0,0.0,79,0.00,CLR,,0.00,WeatherDisplay:10.37,2013-03-09 18:56:00,
2013-03-10 06:01:00,65.6,59.3,29.93,SSE,165,0.0,0.0,80,0.00,CLR,,0.00,WeatherDisplay:10.37,2013-03-09 19:01:00,
2013-03-10 06:06:00,65.5,58.8,29.94,SSE,158,0.0,0.0,79,0.00,CLR,,0.00,WeatherDisplay:10.37,2013-03-09 19:06:00,
2013-03-10 06:11:00,65.5,59.1,29.93,SSE,158,0.0,0.0,80,0.00,CLR,,0.00,WeatherDisplay:10.37,2013-03-09 19:11:00,
2013-03-10 06:16:00,65.5,58.8,29.93,SSE,168,0.0,0.0,79,0.00,CLR,,0.00,WeatherDisplay:10.37,2013-03-09 19:16:00,
2013-03-10 06:21:00,65.5,59.1,29.93,South,184,0.0,0.0,80,0.00,CLR,,0.00,WeatherDisplay:10.37,2013-03-09 19:21:00,
2013-03-10 06:26:00,65.4,59.1,29.93,South,185,0.0,0.0,80,0.00,CLR,,0.00,WeatherDisplay:10.37,2013-03-09 19:26:00,
2013-03-10 06:31:00,65.3,59.0,29.94,South,182,0.0,0.0,80,0.00,CLR,,0.00,WeatherDisplay:10.37,2013-03-09 19:31:00,
2013-03-10 06:36:00,65.3,59.0,29.94,South,183,0.0,0.0,80,0.00,CLR,,0.00,WeatherDisplay:10.37,2013-03-09 19:36:00,
2013-03-10 06:41:00,65.3,59.0,29.94,South,182,0.0,0.0,80,0.00,CLR,,0.00,WeatherDisplay:10.37,2013-03-09 19:41:00,
2013-03-10 06:46:00,65.3,59.0,29.94,South,183,0.0,0.0,80,0.00,CLR,,0.00,WeatherDisplay:10.37,2013-03-09 19:46:00,
2013-03-10 06:51:00,65.3,59.0,29.94,South,182,0.0,0.0,80,0.00,CLR,,0.00,WeatherDisplay:10.37,2013-03-09 19:51:00,
2013-03-10 06:56:00,65.3,59.0,29.94,South,181,0.0,0.0,80,0.00,CLR,,0.00,WeatherDisplay:10.37,2013-03-09 19:56:00,
2013-03-10 07:01:00,65.3,59.0,29.95,South,181,0.0,0.0,80,0.00,CLR,,0.00,WeatherDisplay:10.37,2013-03-09 20:01:00,
2013-03-10 07:06:00,65.2,58.9,29.94,South,180,0.0,0.0,80,0.00,CLR,,0.00,WeatherDisplay:10.37,2013-03-09 20:06:00,
2013-03-10 07:16:00,65.2,58.9,29.95,South,181,0.0,0.0,80,0.00,CLR,,0.00,WeatherDisplay:10.37,2013-03-09 20:16:00,
2013-03-10 07:21:00,65.3,59.0,29.95,South,175,0.0,0.0,80,0.00,CLR,,0.00,WeatherDisplay:10.37,2013-03-09 20:21:00,
2013-03-10 07:26:00,65.3,59.4,29.95,South,183,0.0,0.0,81,0.00,CLR,,0.00,WeatherDisplay:10.37,2013-03-09 20:26:00,
2013-03-10 07:31:00,65.4,59.4,29.95,SSW,197,0.0,0.0,81,0.00,CLR,,0.00,WeatherDisplay:10.37,2013-03-09 20:31:00,
2013-03-10 07:36:00,65.5,59.5,29.95,SSW,203,0.0,0.0,81,0.00,CLR,,0.00,WeatherDisplay:10.37,2013-03-09 20:36:00,
2013-03-10 07:41:00,65.5,59.5,29.95,SW,234,0.0,0.0,81,0.00,CLR,,0.00,WeatherDisplay:10.37,2013-03-09 20:41:00,
2013-03-10 07:46:00,65.7,59.7,29.95,WNW,299,0.0,0.0,81,0.00,CLR,,0.00,WeatherDisplay:10.37,2013-03-09 20:46:00,
2013-03-10 07:51:00,65.8,59.8,29.96,NW,315,0.0,0.0,81,0.00,CLR,,0.00,WeatherDisplay:10.37,2013-03-09 20:51:00,
2013-03-10 07:56:00,65.9,60.3,29.96,NNW,330,0.0,0.0,82,0.00,CLR,,0.00,WeatherDisplay:10.37,2013-03-09 20:56:00,
2013-03-10 08:06:00,66.0,60.4,29.96,NNW,348,0.0,0.0,82,0.00,CLR,,0.00,WeatherDisplay:10.37,2013-03-09 21:06:00,
2013-03-10 08:16:00,66.7,61.1,29.96,North,10,0.0,2.0,82,0.00,CLR,,0.00,WeatherDisplay:10.37,2013-03-09 21:16:00,
2013-03-10 08:21:00,66.9,61.2,29.96,NNE,19,0.0,1.0,82,0.00,CLR,,0.00,WeatherDisplay:10.37,2013-03-09 21:21:00,
2013-03-10 08:26:00,67.3,61.6,29.96,NNE,17,0.0,0.0,82,0.00,CLR,,0.00,WeatherDisplay:10.37,2013-03-09 21:26:00,
2013-03-10 08:31:00,67.5,61.8,29.97,NNE,19,0.0,0.0,82,0.00,CLR,,0.00,WeatherDisplay:10.37,2013-03-09 21:31:00,
2013-03-10 08:36:00,67.8,62.1,29.97,North,6,0.0,0.0,82,0.00,CLR,,0.00,WeatherDisplay:10.37,2013-03-09 21:36:00,
2013-03-10 08:41:00,67.8,61.8,29.97,North,10,0.0,0.0,81,0.00,CLR,,0.00,WeatherDisplay:10.37,2013-03-09 21:41:00,
2013-03-10 08:46:00,67.9,61.8,29.97,NE,34,0.0,0.0,81,0.00,CLR,,0.00,WeatherDisplay:10.37,2013-03-09 21:46:00,
2013-03-10 08:51:00,68.0,61.9,29.96,NE,36,0.0,0.0,81,0.00,CLR,,0.00,WeatherDisplay:10.37,2013-03-09 21:51:00,
2013-03-10 08:56:00,68.2,62.2,29.96,East,88,0.0,0.0,81,0.00,CLR,,0.00,WeatherDisplay:10.37,2013-03-09 21:56:00,
2013-03-10 09:01:00,68.7,63.0,29.97,ESE,104,0.0,0.0,82,0.00,CLR,,0.00,WeatherDisplay:10.37,2013-03-09 22:01:00,
2013-03-10 09:06:00,69.4,63.6,29.97,NE,52,1.0,2.0,82,0.00,CLR,,0.00,WeatherDisplay:10.37,2013-03-09 22:06:00,
2013-03-10 09:11:00,70.0,63.9,29.97,NNE,26,0.0,2.0,81,0.00,CLR,,0.00,WeatherDisplay:10.37,2013-03-09 22:11:00,
2013-03-10 09:16:00,70.8,64.3,29.97,NNE,14,1.0,2.0,80,0.00,CLR,,0.00,WeatherDisplay:10.37,2013-03-09 22:16:00,
2013-03-10 09:21:00,71.6,64.8,29.97,North,11,0.0,2.0,79,0.00,CLR,,0.00,WeatherDisplay:10.37,2013-03-09 22:21:00,
2013-03-10 09:26:00,72.5,65.2,29.97,North,9,0.0,2.0,78,0.00,CLR,,0.00,WeatherDisplay:10.37,2013-03-09 22:26:00,
2013-03-10 09:31:00,73.2,65.2,29.97,NW,325,1.0,3.0,76,0.00,CLR,,0.00,WeatherDisplay:10.37,2013-03-09 22:31:00,
2013-03-10 09:36:00,74.0,65.5,29.97,North,1,1.0,2.0,75,0.00,CLR,,0.00,WeatherDisplay:10.37,2013-03-09 22:36:00,
2013-03-10 09:41:00,74.6,65.4,29.97,North,358,1.0,5.0,73,0.00,CLR,,0.00,WeatherDisplay:10.37,2013-03-09 22:41:00,
2013-03-10 09:46:00,75.3,65.7,29.97,NNE,12,3.0,8.0,72,0.00,CLR,,0.00,WeatherDisplay:10.37,2013-03-09 22:46:00,
2013-03-10 09:51:00,75.7,65.7,29.97,NNE,24,1.0,6.0,71,0.00,CLR,,0.00,WeatherDisplay:10.37,2013-03-09 22:51:00,
2013-03-10 09:56:00,76.0,65.1,29.97,NNE,24,3.0,5.0,69,0.00,CLR,,0.00,WeatherDisplay:10.37,2013-03-09 22:56:00,
2013-03-10 10:01:00,76.4,65.1,29.97,NNE,21,2.0,6.0,68,0.00,CLR,,0.00,WeatherDisplay:10.37,2013-03-09 23:01:00,
2013-03-10 10:06:00,76.6,65.3,29.98,NNE,16,2.0,6.0,68,0.00,CLR,,0.00,WeatherDisplay:10.37,2013-03-09 23:06:00,
2013-03-10 10:11:00,77.0,65.2,29.97,NNE,21,1.0,8.0,67,0.00,CLR,,0.00,WeatherDisplay:10.37,2013-03-09 23:11:00,
2013-03-10 10:16:00,77.4,65.2,29.98,NNE,21,3.0,5.0,66,0.00,CLR,,0.00,WeatherDisplay:10.37,2013-03-09 23:16:00,
2013-03-10 10:21:00,77.8,65.5,29.98,NNE,26,1.0,6.0,66,0.00,CLR,,0.00,WeatherDisplay:10.37,2013-03-09 23:21:00,
2013-03-10 10:26:00,78.4,65.2,29.98,NNE,27,2.0,7.0,64,0.00,CLR,,0.00,WeatherDisplay:10.37,2013-03-09 23:26:00,
2013-03-10 10:31:00,78.7,65.5,29.97,NNE,23,5.0,8.0,64,0.00,CLR,,0.00,WeatherDisplay:10.37,2013-03-09 23:31:00,
2013-03-10 10:36:00,79.2,65.0,29.97,NNE,24,2.0,6.0,62,0.00,CLR,,0.00,WeatherDisplay:10.37,2013-03-09 23:36:00,
2013-03-10 10:41:00,79.3,65.6,29.98,NNE,19,1.0,7.0,63,0.00,CLR,,0.00,WeatherDisplay:10.37,2013-03-09 23:41:00,
2013-03-10 10:46:00,79.9,65.7,29.98,NNE,25,2.0,8.0,62,0.00,CLR,,0.00,WeatherDisplay:10.37,2013-03-09 23:46:00,
2013-03-10 10:51:00,80.2,65.1,29.98,NE,34,3.0,6.0,60,0.00,CLR,,0.00,WeatherDisplay:10.37,2013-03-09 23:51:00,
2013-03-10 10:56:00,80.4,64.8,29.97,NNE,28,0.0,6.0,59,0.00,CLR,,0.00,WeatherDisplay:10.37,2013-03-09 23:56:00,
2013-03-10 11:01:00,80.8,65.1,29.97,NE,43,2.0,7.0,59,0.00,CLR,,0.00,WeatherDisplay:10.37,2013-03-10 00:01:00,
2013-03-10 11:06:00,81.0,64.8,29.97,NE,47,2.0,8.0,58,0.00,CLR,,0.00,WeatherDisplay:10.37,2013-03-10 00:06:00,
2013-03-10 11:11:00,81.1,65.0,29.97,NNE,28,3.0,7.0,58,0.00,CLR,,0.00,WeatherDisplay:10.37,2013-03-10 00:11:00,
2013-03-10 11:16:00,81.3,65.1,29.96,NNE,19,2.0,7.0,58,0.00,CLR,,0.00,WeatherDisplay:10.37,2013-03-10 00:16:00,
2013-03-10 11:21:00,81.7,65.0,29.97,NNE,29,1.0,6.0,57,0.00,CLR,,0.00,WeatherDisplay:10.37,2013-03-10 00:21:00,
2013-03-10 11:26:00,82.0,65.3,29.96,NE,37,1.0,12.0,57,0.00,CLR,,0.00,WeatherDisplay:10.37,2013-03-10 00:26:00,
2013-03-10 11:31:00,82.2,65.0,29.96,NE,36,2.0,7.0,56,0.00,CLR,,0.00,WeatherDisplay:10.37,2013-03-10 00:31:00,
2013-03-10 11:36:00,82.0,64.8,29.96,NE,34,3.0,5.0,56,0.00,CLR,,0.00,WeatherDisplay:10.37,2013-03-10 00:36:00,
2013-03-10 11:41:00,81.7,63.9,29.96,North,1,0.0,5.0,55,0.00,CLR,,0.00,WeatherDisplay:10.37,2013-03-10 00:41:00,
2013-03-10 11:46:00,82.2,64.4,29.95,NNW,342,2.0,7.0,55,0.00,CLR,,0.00,WeatherDisplay:10.37,2013-03-10 00:46:00,
2013-03-10 11:51:00,82.9,64.6,29.95,North,356,2.0,6.0,54,0.00,CLR,,0.00,WeatherDisplay:10.37,2013-03-10 00:51:00,
2013-03-10 11:56:00,83.4,64.5,29.95,NNE,15,2.0,5.0,53,0.00,CLR,,0.00,WeatherDisplay:10.37,2013-03-10 00:56:00,
2013-03-10 12:01:00,83.8,64.8,29.95,North,9,0.0,8.0,53,0.00,CLR,,0.00,WeatherDisplay:10.37,2013-03-10 01:01:00,
2013-03-10 12:06:00,83.3,64.4,29.95,North,6,2.0,6.0,53,0.00,CLR,,0.00,WeatherDisplay:10.37,2013-03-10 01:06:00,
2013-03-10 12:11:00,83.1,64.2,29.95,NNE,22,1.0,5.0,53,0.00,CLR,,0.00,WeatherDisplay:10.37,2013-03-10 01:11:00,
2013-03-10 12:16:00,82.9,64.0,29.95,North,358,1.0,2.0,53,0.00,CLR,,0.00,WeatherDisplay:10.37,2013-03-10 01:16:00,
2013-03-10 12:21:00,83.4,64.5,29.94,SW,227,2.0,4.0,53,0.00,CLR,,0.00,WeatherDisplay:10.37,2013-03-10 01:21:00,
2013-03-10 12:26:00,84.3,64.8,29.95,NW,304,2.0,6.0,52,0.00,CLR,,0.00,WeatherDisplay:10.37,2013-03-10 01:26:00,
2013-03-10 12:31:00,84.7,64.6,29.94,NNW,332,1.0,6.0,51,0.00,CLR,,0.00,WeatherDisplay:10.37,2013-03-10 01:31:00,
2013-03-10 12:36:00,84.9,64.7,29.94,North,353,2.0,5.0,51,0.00,CLR,,0.00,WeatherDisplay:10.37,2013-03-10 01:36:00,
2013-03-10 12:41:00,85.3,64.5,29.94,North,356,2.0,7.0,50,0.00,CLR,,0.00,WeatherDisplay:10.37,2013-03-10 01:41:00,
2013-03-10 12:46:00,85.5,64.7,29.94,NNE,20,2.0,7.0,50,0.00,CLR,,0.00,WeatherDisplay:10.37,2013-03-10 01:46:00,
2013-03-10 12:51:00,85.4,64.6,29.94,NNE,23,5.0,8.0,50,0.00,CLR,,0.00,WeatherDisplay:10.37,2013-03-10 01:51:00,
2013-03-10 12:56:00,85.6,65.4,29.93,North,11,1.0,6.0,51,0.00,CLR,,0.00,WeatherDisplay:10.37,2013-03-10 01:56:00,
2013-03-10 13:01:00,86.0,66.3,29.93,NNE,14,2.0,6.0,52,0.00,CLR,,0.00,WeatherDisplay:10.37,2013-03-10 02:01:00,
2013-03-10 13:06:00,86.3,66.6,29.93,NNE,21,5.0,6.0,52,0.00,CLR,,0.00,WeatherDisplay:10.37,2013-03-10 02:06:00,
2013-03-10 13:11:00,86.4,66.1,29.93,NNE,24,2.0,6.0,51,0.00,CLR,,0.00,WeatherDisplay:10.37,2013-03-10 02:11:00,
2013-03-10 13:16:00,86.5,66.8,29.93,NNE,19,2.0,5.0,52,0.00,CLR,,0.00,WeatherDisplay:10.37,2013-03-10 02:16:00,
2013-03-10 13:21:00,86.4,66.7,29.93,North,358,7.0,11.0,52,0.00,CLR,,0.00,WeatherDisplay:10.37,2013-03-10 02:21:00,
2013-03-10 13:26:00,86.5,66.8,29.92,North,6,1.0,6.0,52,0.00,CLR,,0.00,WeatherDisplay:10.37,2013-03-10 02:26:00,
2013-03-10 13:31:00,86.5,66.8,29.93,NNE,12,3.0,9.0,52,0.00,CLR,,0.00,WeatherDisplay:10.37,2013-03-10 02:31:00,
2013-03-10 13:36:00,86.7,67.0,29.92,NNE,14,1.0,7.0,52,0.00,CLR,,0.00,WeatherDisplay:10.37,2013-03-10 02:36:00,
2013-03-10 13:41:00,86.7,67.0,29.92,NNE,30,3.0,6.0,52,0.00,CLR,,0.00,WeatherDisplay:10.37,2013-03-10 02:41:00,
2013-03-10 13:46:00,86.9,66.6,29.91,NNE,12,1.0,6.0,51,0.00,CLR,,0.00,WeatherDisplay:10.37,2013-03-10 02:46:00,
2013-03-10 13:51:00,86.7,66.4,29.91,NNE,29,2.0,6.0,51,0.00,CLR,,0.00,WeatherDisplay:10.37,2013-03-10 02:51:00,
2013-03-10 13:56:00,86.5,66.3,29.91,NNE,27,0.0,5.0,51,0.00,CLR,,0.00,WeatherDisplay:10.37,2013-03-10 02:56:00,
2013-03-10 14:01:00,86.5,66.3,29.91,North,8,3.0,12.0,51,0.00,CLR,,0.00,WeatherDisplay:10.37,2013-03-10 03:01:00,
2013-03-10 14:06:00,86.4,66.1,29.90,NE,45,2.0,7.0,51,0.00,CLR,,0.00,WeatherDisplay:10.37,2013-03-10 03:06:00,
2013-03-10 14:11:00,86.4,66.7,29.91,NNW,341,2.0,6.0,52,0.00,CLR,,0.00,WeatherDisplay:10.37,2013-03-10 03:11:00,
2013-03-10 14:16:00,86.4,66.1,29.91,NE,48,1.0,8.0,51,0.00,CLR,,0.00,WeatherDisplay:10.37,2013-03-10 03:16:00,
2013-03-10 14:21:00,86.2,66.5,29.91,ENE,60,1.0,6.0,52,0.00,CLR,,0.00,WeatherDisplay:10.37,2013-03-10 03:21:00,
2013-03-10 14:26:00,86.2,66.5,29.90,NNW,345,1.0,4.0,52,0.00,CLR,,0.00,WeatherDisplay:10.37,2013-03-10 03:26:00,
2013-03-10 14:31:00,86.3,66.0,29.90,NW,316,1.0,6.0,51,0.00,CLR,,0.00,WeatherDisplay:10.37,2013-03-10 03:31:00,
2013-03-10 14:36:00,86.2,65.9,29.90,NE,34,3.0,10.0,51,0.00,CLR,,0.00,WeatherDisplay:10.37,2013-03-10 03:36:00,
2013-03-10 14:41:00,86.3,66.0,29.90,NE,48,3.0,10.0,51,0.00,CLR,,0.00,WeatherDisplay:10.37,2013-03-10 03:41:00,
2013-03-10 14:46:00,86.4,66.1,29.90,NNE,30,2.0,5.0,51,0.00,CLR,,0.00,WeatherDisplay:10.37,2013-03-10 03:46:00,
2013-03-10 14:51:00,86.5,66.3,29.90,NE,46,3.0,10.0,51,0.00,CLR,,0.00,WeatherDisplay:10.37,2013-03-10 03:51:00,
2013-03-10 14:56:00,86.4,66.2,29.90,NE,49,3.0,7.0,51,0.00,CLR,,0.00,WeatherDisplay:10.37,2013-03-10 03:56:00,
2013-03-10 15:01:00,86.5,66.3,29.90,NE,43,5.0,7.0,51,0.00,CLR,,0.00,WeatherDisplay:10.37,2013-03-10 04:01:00,
2013-03-10 15:06:00,86.4,66.1,29.90,NNE,12,2.0,13.0,51,0.00,CLR,,0.00,WeatherDisplay:10.37,2013-03-10 04:06:00,
2013-03-10 15:11:00,86.3,66.6,29.90,NNE,29,3.0,6.0,52,0.00,CLR,,0.00,WeatherDisplay:10.37,2013-03-10 04:11:00,
2013-03-10 15:16:00,86.2,65.9,29.90,NNE,14,3.0,9.0,51,0.00,CLR,,0.00,WeatherDisplay:10.37,2013-03-10 04:16:00,
2013-03-10 15:21:00,85.9,65.7,29.89,WNW,287,3.0,8.0,51,0.00,CLR,,0.00,WeatherDisplay:10.37,2013-03-10 04:21:00,
2013-03-10 15:26:00,85.8,65.6,29.89,SSW,198,3.0,7.0,51,0.00,CLR,,0.00,WeatherDisplay:10.37,2013-03-10 04:26:00,
2013-03-10 15:36:00,85.6,65.4,29.89,East,88,2.0,5.0,51,0.00,CLR,,0.00,WeatherDisplay:10.37,2013-03-10 04:36:00,
2013-03-10 15:41:00,85.3,65.1,29.89,ENE,63,5.0,7.0,51,0.00,CLR,,0.00,WeatherDisplay:10.37,2013-03-10 04:41:00,
2013-03-10 15:46:00,84.8,65.3,29.89,ENE,59,3.0,8.0,52,0.00,CLR,,0.00,WeatherDisplay:10.37,2013-03-10 04:46:00,
2013-03-10 15:51:00,84.6,65.1,29.89,East,98,5.0,7.0,52,0.00,CLR,,0.00,WeatherDisplay:10.37,2013-03-10 04:51:00,
2013-03-10 15:56:00,84.6,65.0,29.89,NNE,16,2.0,5.0,52,0.00,CLR,,0.00,WeatherDisplay:10.37,2013-03-10 04:56:00,
2013-03-10 16:01:00,84.7,65.2,29.88,NE,49,1.0,6.0,52,0.00,CLR,,0.00,WeatherDisplay:10.37,2013-03-10 05:01:00,
2013-03-10 16:06:00,84.7,65.1,29.89,ESE,122,2.0,12.0,52,0.00,CLR,,0.00,WeatherDisplay:10.37,2013-03-10 05:06:00,
2013-03-10 16:11:00,84.4,64.8,29.88,ENE,57,5.0,10.0,52,0.00,CLR,,0.00,WeatherDisplay:10.37,2013-03-10 05:11:00,
2013-03-10 16:16:00,84.2,65.2,29.88,NE,42,3.0,8.0,53,0.00,CLR,,0.00,WeatherDisplay:10.37,2013-03-10 05:16:00,
2013-03-10 16:21:00,84.0,65.0,29.88,NE,52,2.0,9.0,53,0.00,CLR,,0.00,WeatherDisplay:10.37,2013-03-10 05:21:00,
2013-03-10 16:26:00,84.1,65.1,29.88,ENE,73,1.0,9.0,53,0.00,CLR,,0.00,WeatherDisplay:10.37,2013-03-10 05:26:00,
2013-03-10 16:31:00,84.0,65.6,29.88,North,1,3.0,7.0,54,0.00,CLR,,0.00,WeatherDisplay:10.37,2013-03-10 05:31:00,
2013-03-10 16:36:00,83.8,65.4,29.88,North,4,0.0,4.0,54,0.00,CLR,,0.00,WeatherDisplay:10.37,2013-03-10 05:36:00,
2013-03-10 16:41:00,83.8,65.4,29.88,North,3,5.0,9.0,54,0.00,CLR,,0.00,WeatherDisplay:10.37,2013-03-10 05:41:00,
2013-03-10 16:46:00,83.6,64.7,29.88,NNE,30,2.0,6.0,53,0.00,CLR,,0.00,WeatherDisplay:10.37,2013-03-10 05:46:00,
2013-03-10 16:51:00,83.5,65.1,29.88,NNW,332,1.0,9.0,54,0.00,CLR,,0.00,WeatherDisplay:10.37,2013-03-10 05:51:00,
2013-03-10 16:56:00,83.1,64.8,29.88,NE,38,3.0,9.0,54,0.00,CLR,,0.00,WeatherDisplay:10.37,2013-03-10 05:56:00,
2013-03-10 17:01:00,82.9,64.6,29.88,ENE,76,2.0,9.0,54,0.00,CLR,,0.00,WeatherDisplay:10.37,2013-03-10 06:01:00,
2013-03-10 17:06:00,82.6,64.8,29.88,East,84,6.0,10.0,55,0.00,CLR,,0.00,WeatherDisplay:10.37,2013-03-10 06:06:00,
2013-03-10 17:11:00,82.2,63.9,29.89,NE,56,1.0,10.0,54,0.00,CLR,,0.00,WeatherDisplay:10.37,2013-03-10 06:11:00,
2013-03-10 17:16:00,81.7,63.4,29.89,ENE,60,2.0,6.0,54,0.00,CLR,,0.00,WeatherDisplay:10.37,2013-03-10 06:16:00,
2013-03-10 17:21:00,81.3,63.1,29.89,NE,52,3.0,9.0,54,0.00,CLR,,0.00,WeatherDisplay:10.37,2013-03-10 06:21:00,
2013-03-10 17:26:00,81.1,63.4,29.89,NE,55,2.0,7.0,55,0.00,CLR,,0.00,WeatherDisplay:10.37,2013-03-10 06:26:00,
2013-03-10 17:31:00,80.9,63.7,29.89,ENE,67,2.0,10.0,56,0.00,CLR,,0.00,WeatherDisplay:10.37,2013-03-10 06:31:00,
2013-03-10 17:36:00,80.8,63.6,29.89,ESE,118,3.0,8.0,56,0.00,CLR,,0.00,WeatherDisplay:10.37,2013-03-10 06:36:00,
2013-03-10 17:41:00,80.8,64.1,29.89,ENE,74,1.0,7.0,57,0.00,CLR,,0.00,WeatherDisplay:10.37,2013-03-10 06:41:00,
2013-03-10 17:46:00,80.9,64.3,29.90,ENE,66,2.0,9.0,57,0.00,CLR,,0.00,WeatherDisplay:10.37,2013-03-10 06:46:00,
2013-03-10 17:51:00,80.8,64.1,29.89,ENE,75,1.0,13.0,57,0.00,CLR,,0.00,WeatherDisplay:10.37,2013-03-10 06:51:00,
2013-03-10 17:56:00,80.8,64.1,29.89,NNW,348,3.0,13.0,57,0.00,CLR,,0.00,WeatherDisplay:10.37,2013-03-10 06:56:00,
2013-03-10 18:01:00,80.4,63.8,29.89,ENE,74,2.0,6.0,57,0.00,CLR,,0.00,WeatherDisplay:10.37,2013-03-10 07:01:00,
2013-03-10 18:06:00,80.2,63.6,29.89,NNE,32,3.0,7.0,57,0.00,CLR,,0.00,WeatherDisplay:10.37,2013-03-10 07:06:00,
2013-03-10 18:11:00,80.0,63.9,29.89,North,7,3.0,7.0,58,0.00,CLR,,0.00,WeatherDisplay:10.37,2013-03-10 07:11:00,
2013-03-10 18:16:00,79.7,63.6,29.89,NNW,339,1.0,9.0,58,0.00,CLR,,0.00,WeatherDisplay:10.37,2013-03-10 07:16:00,
2013-03-10 18:21:00,79.4,63.8,29.89,NNE,22,3.0,6.0,59,0.00,CLR,,0.00,WeatherDisplay:10.37,2013-03-10 07:21:00,
2013-03-10 18:26:00,79.2,63.6,29.89,NE,41,5.0,7.0,59,0.00,CLR,,0.00,WeatherDisplay:10.37,2013-03-10 07:26:00,
2013-03-10 18:31:00,79.0,63.9,29.89,ENE,58,1.0,7.0,60,0.00,CLR,,0.00,WeatherDisplay:10.37,2013-03-10 07:31:00,
2013-03-10 18:36:00,78.7,63.6,29.89,NE,39,2.0,7.0,60,0.00,CLR,,0.00,WeatherDisplay:10.37,2013-03-10 07:36:00,
2013-03-10 18:46:00,78.4,63.8,29.90,ESE,110,1.0,6.0,61,0.00,CLR,,0.00,WeatherDisplay:10.37,2013-03-10 07:46:00,
2013-03-10 18:51:00,78.1,63.5,29.89,ENE,74,2.0,6.0,61,0.00,CLR,,0.00,WeatherDisplay:10.37,2013-03-10 07:51:00,
2013-03-10 18:56:00,77.9,63.4,29.90,ENE,64,1.0,6.0,61,0.00,CLR,,0.00,WeatherDisplay:10.37,2013-03-10 07:56:00,
2013-03-10 19:01:00,77.7,63.7,29.90,NE,48,0.0,6.0,62,0.00,CLR,,0.00,WeatherDisplay:10.37,2013-03-10 08:01:00,
2013-03-10 19:06:00,77.7,63.6,29.89,NE,55,1.0,7.0,62,0.00,CLR,,0.00,WeatherDisplay:10.37,2013-03-10 08:06:00,
2013-03-10 19:11:00,77.5,63.5,29.90,NNE,32,2.0,7.0,62,0.00,CLR,,0.00,WeatherDisplay:10.37,2013-03-10 08:11:00,
2013-03-10 19:16:00,77.3,63.7,29.90,NNE,32,1.0,2.0,63,0.00,CLR,,0.00,WeatherDisplay:10.37,2013-03-10 08:16:00,
2013-03-10 19:21:00,77.0,63.5,29.90,NE,56,2.0,8.0,63,0.00,CLR,,0.00,WeatherDisplay:10.37,2013-03-10 08:21:00,
2013-03-10 19:26:00,76.8,63.3,29.90,NE,46,2.0,6.0,63,0.00,CLR,,0.00,WeatherDisplay:10.37,2013-03-10 08:26:00,
2013-03-10 19:31:00,76.8,63.7,29.91,NE,51,2.0,6.0,64,0.00,CLR,,0.00,WeatherDisplay:10.37,2013-03-10 08:31:00,
2013-03-10 19:36:00,76.6,63.5,29.91,ENE,68,2.0,5.0,64,0.00,CLR,,0.00,WeatherDisplay:10.37,2013-03-10 08:36:00,
2013-03-10 19:41:00,76.5,63.8,29.91,NE,51,1.0,6.0,65,0.00,CLR,,0.00,WeatherDisplay:10.37,2013-03-10 08:41:00,
2013-03-10 19:46:00,76.3,63.6,29.91,NE,51,1.0,7.0,65,0.00,CLR,,0.00,WeatherDisplay:10.37,2013-03-10 08:46:00,
2013-03-10 19:51:00,76.2,63.6,29.91,ENE,60,2.0,7.0,65,0.00,CLR,,0.00,WeatherDisplay:10.37,2013-03-10 08:51:00,
2013-03-10 19:56:00,76.1,63.5,29.91,NE,40,2.0,5.0,65,0.00,CLR,,0.00,WeatherDisplay:10.37,2013-03-10 08:56:00,
2013-03-10 20:01:00,75.9,63.7,29.92,NE,41,2.0,5.0,66,0.00,CLR,,0.00,WeatherDisplay:10.37,2013-03-10 09:01:00,
2013-03-10 20:06:00,75.9,63.7,29.91,NE,46,1.0,5.0,66,0.00,CLR,,0.00,WeatherDisplay:10.37,2013-03-10 09:06:00,
2013-03-10 20:11:00,75.7,63.6,29.92,ENE,60,1.0,4.0,66,0.00,CLR,,0.00,WeatherDisplay:10.37,2013-03-10 09:11:00,
2013-03-10 20:16:00,75.7,64.0,29.92,ENE,61,1.0,4.0,67,0.00,CLR,,0.00,WeatherDisplay:10.37,2013-03-10 09:16:00,
2013-03-10 20:21:00,75.6,63.8,29.92,NE,56,1.0,5.0,67,0.00,CLR,,0.00,WeatherDisplay:10.37,2013-03-10 09:21:00,
2013-03-10 20:26:00,75.6,63.8,29.92,NE,50,1.0,7.0,67,0.00,CLR,,0.00,WeatherDisplay:10.37,2013-03-10 09:26:00,
2013-03-10 20:31:00,75.4,63.7,29.93,ENE,59,0.0,3.0,67,0.00,CLR,,0.00,WeatherDisplay:10.37,2013-03-10 09:31:00,
2013-03-10 20:36:00,75.4,63.7,29.93,ENE,57,0.0,4.0,67,0.00,CLR,,0.00,WeatherDisplay:10.37,2013-03-10 09:36:00,
2013-03-10 20:41:00,75.4,64.1,29.93,NE,47,1.0,8.0,68,0.00,CLR,,0.00,WeatherDisplay:10.37,2013-03-10 09:41:00,
2013-03-10 20:51:00,75.2,63.9,29.93,NE,43,0.0,3.0,68,0.00,CLR,,0.00,WeatherDisplay:10.37,2013-03-10 09:51:00,
2013-03-10 20:56:00,75.0,63.7,29.94,NE,50,0.0,11.0,68,0.00,CLR,,0.00,WeatherDisplay:10.37,2013-03-10 09:56:00,
2013-03-10 21:01:00,75.0,63.7,29.94,NE,47,0.0,6.0,68,0.00,CLR,,0.00,WeatherDisplay:10.37,2013-03-10 10:01:00,
2013-03-10 21:06:00,75.0,63.7,29.94,NE,44,3.0,8.0,68,0.00,CLR,,0.00,WeatherDisplay:10.37,2013-03-10 10:06:00,
2013-03-10 21:11:00,75.0,63.7,29.94,NE,48,3.0,7.0,68,0.00,CLR,,0.00,WeatherDisplay:10.37,2013-03-10 10:11:00,
2013-03-10 21:16:00,74.8,64.0,29.94,NE,55,0.0,6.0,69,0.00,CLR,,0.00,WeatherDisplay:10.37,2013-03-10 10:16:00,
2013-03-10 21:21:00,74.8,64.0,29.94,NE,49,0.0,5.0,69,0.00,CLR,,0.00,WeatherDisplay:10.37,2013-03-10 10:21:00,
2013-03-10 21:26:00,74.8,64.0,29.94,NE,38,2.0,8.0,69,0.00,CLR,,0.00,WeatherDisplay:10.37,2013-03-10 10:26:00,
2013-03-10 21:31:00,74.8,63.9,29.94,NE,55,2.0,5.0,69,0.00,CLR,,0.00,WeatherDisplay:10.37,2013-03-10 10:31:00,
2013-03-10 21:41:00,74.5,63.6,29.94,NE,37,0.0,4.0,69,0.00,CLR,,0.00,WeatherDisplay:10.37,2013-03-10 10:41:00,
2013-03-10 21:46:00,74.5,64.1,29.95,NNE,31,0.0,5.0,70,0.00,CLR,,0.00,WeatherDisplay:10.37,2013-03-10 10:46:00,
2013-03-10 21:51:00,74.5,64.1,29.95,ENE,59,0.0,3.0,70,0.00,CLR,,0.00,WeatherDisplay:10.37,2013-03-10 10:51:00,
2013-03-10 21:56:00,74.5,64.0,29.94,ENE,70,0.0,2.0,70,0.00,CLR,,0.00,WeatherDisplay:10.37,2013-03-10 10:56:00,
2013-03-10 22:01:00,74.3,63.9,29.94,ENE,62,2.0,5.0,70,0.00,CLR,,0.00,WeatherDisplay:10.37,2013-03-10 11:01:00,
2013-03-10 22:06:00,74.3,63.9,29.95,NE,53,1.0,4.0,70,0.00,CLR,,0.00,WeatherDisplay:10.37,2013-03-10 11:06:00,
2013-03-10 22:11:00,74.1,63.7,29.95,ENE,58,1.0,6.0,70,0.00,CLR,,0.00,WeatherDisplay:10.37,2013-03-10 11:11:00,
2013-03-10 22:16:00,74.0,64.0,29.95,ENE,59,1.0,3.0,71,0.00,CLR,,0.00,WeatherDisplay:10.37,2013-03-10 11:16:00,
2013-03-10 22:21:00,73.9,63.9,29.95,NE,44,0.0,5.0,71,0.00,CLR,,0.00,WeatherDisplay:10.37,2013-03-10 11:21:00,
2013-03-10 22:26:00,73.9,63.9,29.94,NE,36,1.0,3.0,71,0.00,CLR,,0.00,WeatherDisplay:10.37,2013-03-10 11:26:00,
2013-03-10 22:31:00,73.9,63.9,29.95,NNE,26,0.0,4.0,71,0.00,CLR,,0.00,WeatherDisplay:10.37,2013-03-10 11:31:00,
2013-03-10 22:36:00,73.8,63.8,29.95,ENE,59,1.0,8.0,71,0.00,CLR,,0.00,WeatherDisplay:10.37,2013-03-10 11:36:00,
2013-03-10 22:41:00,73.8,63.8,29.95,ENE,57,0.0,3.0,71,0.00,CLR,,0.00,WeatherDisplay:10.37,2013-03-10 11:41:00,
2013-03-10 22:46:00,73.6,63.6,29.95,ENE,61,0.0,4.0,71,0.00,CLR,,0.00,WeatherDisplay:10.37,2013-03-10 11:46:00,
2013-03-10 22:51:00,73.6,63.6,29.95,East,79,1.0,4.0,71,0.00,CLR,,0.00,WeatherDisplay:10.37,2013-03-10 11:51:00,
2013-03-10 22:56:00,73.4,63.4,29.95,NE,52,0.0,0.0,71,0.00,CLR,,0.00,WeatherDisplay:10.37,2013-03-10 11:56:00,
2013-03-10 23:01:00,73.2,63.2,29.95,NNE,33,2.0,3.0,71,0.00,CLR,,0.00,WeatherDisplay:10.37,2013-03-10 12:01:00,
2013-03-10 23:06:00,73.2,63.2,29.95,NE,48,0.0,5.0,71,0.00,CLR,,0.00,WeatherDisplay:10.37,2013-03-10 12:06:00,
2013-03-10 23:11:00,73.2,63.2,29.94,NNE,24,0.0,2.0,71,0.00,CLR,,0.00,WeatherDisplay:10.37,2013-03-10 12:11:00,
2013-03-10 23:16:00,73.2,63.2,29.95,ENE,59,0.0,4.0,71,0.00,CLR,,0.00,WeatherDisplay:10.37,2013-03-10 12:16:00,
2013-03-10 23:21:00,73.2,63.2,29.94,ENE,65,0.0,0.0,71,0.00,CLR,,0.00,WeatherDisplay:10.37,2013-03-10 12:21:00,
2013-03-10 23:26:00,73.0,63.1,29.95,ENE,77,0.0,2.0,71,0.00,CLR,,0.00,WeatherDisplay:10.37,2013-03-10 12:26:00,
2013-03-10 23:31:00,73.0,63.1,29.94,East,79,0.0,2.0,71,0.00,CLR,,0.00,WeatherDisplay:10.37,2013-03-10 12:31:00,
2013-03-10 23:36:00,73.0,63.1,29.94,East,80,0.0,3.0,71,0.00,CLR,,0.00,WeatherDisplay:10.37,2013-03-10 12:36:00,
2013-03-10 23:41:00,73.0,63.5,29.95,East,84,0.0,1.0,72,0.00,CLR,,0.00,WeatherDisplay:10.37,2013-03-10 12:41:00,
2013-03-10 23:46:00,73.0,63.5,29.95,East,84,1.0,3.0,72,0.00,CLR,,0.00,WeatherDisplay:10.37,2013-03-10 12:46:00,
2013-03-10 23:51:00,72.7,63.1,29.95,East,81,0.0,3.0,72,0.00,CLR,,0.00,WeatherDisplay:10.37,2013-03-10 12:51:00,
2013-03-10 23:56:00,72.7,63.1,29.95,ESE,105,0.0,0.0,72,0.00,CLR,,0.00,WeatherDisplay:10.37,2013-03-10 12:56:00,